Eielson Air Force Base
PAEI : now visible

Airfield :











YOU CAN JOIN US ON...

 
LOGIN :

Register | Disclaimer

   EN    FR    IT 

 









Legend :    VFR   Marginal VFR   IFR   Intensive IFR   Very Intensive IFR
Visi :
Ceiling :
>= 8 km
>= 3000ft
5 to 8 km
1000 to 3000 ft
1500m to 5 km
500 to 1000 ft
800 to 1500m
200 to 500 ft
< 800m
< 200 ft
Symbols :   Thunderstorms  Fog  Heavy snow  Heavy precipitations  Wind > 20 kt






- Airport Elevation : 547 ft
- IATA code : EIL


PAEI - Eielson Air Force Base

CURRENT METAR :
  • 100956Z AUTO 16003KT 10SM CLR M13/M21 A3043 RMK AO2 SLP319 T11271208 $

EXPIRED METARs :
  • 100856Z AUTO 14004KT 10SM CLR M14/M21 A3043 RMK AO2 SLP320 T11361210 410381140 50004 $
  • 100756Z AUTO 11003KT 10SM CLR M13/M21 A3043 RMK AO2 SLP320 T11261209 $

TAF TAF PAEI
Valid from the 10 at 06:00 until the 11 at 12:00 UTC


100600Z 1006/1112 VRB05KT 9999 FEW030 SCT070 QNH3043INS
BECMG 1011/1012 VRB06KT 9999 FEW025 BKN050 620505 510009 QNH3042INS
BECMG 1020/1021 VRB06KT 9999 VCSH BKN035 OVC050 610357 520009 QNH3040INS
BECMG 1022/1023 23010G15KT 8000 -RASN BKN015 OVC030 620159 520009 QNH3042INS
BECMG 1105/1106 VRB04KT 9999 VCSH SCT015 BKN035 610357 510009 QNH3045INS
BECMG 1110/1111 09004KT 9999 NSW FEW035 SCT050 BKN100 QNH3047INS TX02/1102Z TNM14/1012Z



MET'MAP, your aeronautical weather chart ! - Copyright ORBIFLY December 2007 - Disclaimer

ORBIFLY MET'MAP TEAM :

Programming & Development : Alexandra Zaïnal
Concept & original design : Baudouin d'Aumeries
Assistance for programming : Marc-Olivier Méhu
Technical & hardware support : Manuel Goepfert

Contact : metmap@orbifly.com




SOURCES & CREDITS :

   NOAA       Earth
Advisory